sensor_id;sensor_type;location;lat;lon;timestamp;P1;durP1;ratioP1;P2;durP2;ratioP2
3331;SDS011;1678;50.94845400;5.30809100;2022-08-16T00:01:23;9.53;;;8.73;;
3331;SDS011;1678;50.94845400;5.30809100;2022-08-16T00:03:59;11.33;;;7.60;;
3331;SDS011;1678;50.94845400;5.30809100;2022-08-16T00:06:30;9.33;;;6.97;;
3331;SDS011;1678;50.94845400;5.30809100;2022-08-16T00:08:58;10.47;;;8.67;;
3331;SDS011;1678;50.94845400;5.30809100;2022-08-16T00:11:28;9.73;;;8.50;;
3331;SDS011;1678;50.94845400;5.30809100;2022-08-16T00:13:56;7.60;;;7.17;;
3331;SDS011;1678;50.94845400;5.30809100;2022-08-16T00:16:25;10.13;;;8.30;;
3331;SDS011;1678;50.94845400;5.30809100;2022-08-16T00:19:17;9.90;;;8.13;;
3331;SDS011;1678;50.94845400;5.30809100;2022-08-16T00:21:47;8.30;;;7.70;;
3331;SDS011;1678;50.94845400;5.30809100;2022-08-16T00:24:19;8.90;;;8.10;;
3331;SDS011;1678;50.94845400;5.30809100;2022-08-16T00:26:59;9.00;;;8.40;;
3331;SDS011;1678;50.94845400;5.30809100;2022-08-16T00:29:28;9.53;;;8.40;;
3331;SDS011;1678;50.94845400;5.30809100;2022-08-16T00:31:58;9.33;;;7.87;;
3331;SDS011;1678;50.94845400;5.30809100;2022-08-16T00:34:31;8.97;;;8.20;;
3331;SDS011;1678;50.94845400;5.30809100;2022-08-16T00:37:17;8.20;;;7.60;;
3331;SDS011;1678;50.94845400;5.30809100;2022-08-16T00:39:50;8.77;;;7.97;;
3331;SDS011;1678;50.94845400;5.30809100;2022-08-16T00:42:25;11.30;;;10.40;;
3331;SDS011;1678;50.94845400;5.30809100;2022-08-16T00:45:02;8.60;;;7.80;;
3331;SDS011;1678;50.94845400;5.30809100;2022-08-16T00:47:36;9.40;;;7.57;;
3331;SDS011;1678;50.94845400;5.30809100;2022-08-16T00:50:14;9.83;;;9.23;;
3331;SDS011;1678;50.94845400;5.30809100;2022-08-16T00:52:44;7.27;;;6.77;;
3331;SDS011;1678;50.94845400;5.30809100;2022-08-16T00:55:17;7.17;;;6.67;;
3331;SDS011;1678;50.94845400;5.30809100;2022-08-16T00:57:49;10.57;;;6.80;;
3331;SDS011;1678;50.94845400;5.30809100;2022-08-16T01:00:26;7.97;;;7.00;;
3331;SDS011;1678;50.94845400;5.30809100;2022-08-16T01:02:56;6.07;;;5.57;;
3331;SDS011;1678;50.94845400;5.30809100;2022-08-16T01:05:27;7.70;;;6.43;;
3331;SDS011;1678;50.94845400;5.30809100;2022-08-16T01:07:58;6.80;;;6.50;;
3331;SDS011;1678;50.94845400;5.30809100;2022-08-16T01:10:27;7.73;;;6.03;;
3331;SDS011;1678;50.94845400;5.30809100;2022-08-16T01:13:01;7.73;;;7.33;;
3331;SDS011;1678;50.94845400;5.30809100;2022-08-16T01:15:33;5.43;;;5.13;;
3331;SDS011;1678;50.94845400;5.30809100;2022-08-16T01:18:09;6.17;;;5.87;;
3331;SDS011;1678;50.94845400;5.30809100;2022-08-16T01:21:03;6.77;;;6.43;;
3331;SDS011;1678;50.94845400;5.30809100;2022-08-16T01:23:55;6.13;;;5.73;;
3331;SDS011;1678;50.94845400;5.30809100;2022-08-16T01:27:00;5.70;;;5.40;;
3331;SDS011;1678;50.94845400;5.30809100;2022-08-16T01:29:33;7.03;;;6.03;;
3331;SDS011;1678;50.94845400;5.30809100;2022-08-16T01:32:24;6.77;;;6.27;;
3331;SDS011;1678;50.94845400;5.30809100;2022-08-16T01:35:07;4.87;;;4.67;;
3331;SDS011;1678;50.94845400;5.30809100;2022-08-16T01:37:44;5.83;;;5.53;;
3331;SDS011;1678;50.94845400;5.30809100;2022-08-16T01:40:22;5.77;;;5.40;;
3331;SDS011;1678;50.94845400;5.30809100;2022-08-16T01:42:52;6.57;;;6.17;;
3331;SDS011;1678;50.94845400;5.30809100;2022-08-16T01:45:22;6.70;;;6.20;;
3331;SDS011;1678;50.94845400;5.30809100;2022-08-16T01:48:06;7.10;;;6.67;;
3331;SDS011;1678;50.94845400;5.30809100;2022-08-16T01:50:45;6.30;;;5.80;;
3331;SDS011;1678;50.94845400;5.30809100;2022-08-16T01:53:35;6.30;;;5.80;;
3331;SDS011;1678;50.94845400;5.30809100;2022-08-16T01:56:07;6.17;;;5.63;;
3331;SDS011;1678;50.94845400;5.30809100;2022-08-16T01:58:49;11.93;;;6.50;;
3331;SDS011;1678;50.94845400;5.30809100;2022-08-16T02:01:18;6.50;;;6.17;;
3331;SDS011;1678;50.94845400;5.30809100;2022-08-16T02:03:47;7.97;;;7.30;;
3331;SDS011;1678;50.94845400;5.30809100;2022-08-16T02:06:16;7.33;;;6.73;;
3331;SDS011;1678;50.94845400;5.30809100;2022-08-16T02:09:00;6.93;;;6.03;;
3331;SDS011;1678;50.94845400;5.30809100;2022-08-16T02:11:32;7.97;;;7.27;;
3331;SDS011;1678;50.94845400;5.30809100;2022-08-16T02:14:13;7.17;;;6.67;;
3331;SDS011;1678;50.94845400;5.30809100;2022-08-16T02:16:46;6.70;;;6.20;;
3331;SDS011;1678;50.94845400;5.30809100;2022-08-16T02:19:14;7.13;;;6.70;;
3331;SDS011;1678;50.94845400;5.30809100;2022-08-16T02:21:43;7.03;;;6.40;;
3331;SDS011;1678;50.94845400;5.30809100;2022-08-16T02:24:35;6.63;;;6.33;;
3331;SDS011;1678;50.94845400;5.30809100;2022-08-16T02:27:09;7.00;;;6.50;;
3331;SDS011;1678;50.94845400;5.30809100;2022-08-16T02:29:37;6.53;;;6.13;;
3331;SDS011;1678;50.94845400;5.30809100;2022-08-16T02:32:07;7.17;;;6.10;;
3331;SDS011;1678;50.94845400;5.30809100;2022-08-16T02:34:56;7.50;;;7.10;;
3331;SDS011;1678;50.94845400;5.30809100;2022-08-16T02:37:25;5.60;;;5.20;;
3331;SDS011;1678;50.94845400;5.30809100;2022-08-16T02:40:14;7.63;;;6.83;;
3331;SDS011;1678;50.94845400;5.30809100;2022-08-16T02:42:45;9.67;;;7.67;;
3331;SDS011;1678;50.94845400;5.30809100;2022-08-16T02:45:16;6.00;;;5.53;;
3331;SDS011;1678;50.94845400;5.30809100;2022-08-16T02:47:45;6.63;;;6.23;;
3331;SDS011;1678;50.94845400;5.30809100;2022-08-16T02:50:33;7.63;;;6.80;;
3331;SDS011;1678;50.94845400;5.30809100;2022-08-16T02:53:21;5.90;;;5.60;;
3331;SDS011;1678;50.94845400;5.30809100;2022-08-16T02:55:51;7.23;;;6.83;;
3331;SDS011;1678;50.94845400;5.30809100;2022-08-16T02:58:21;9.37;;;6.03;;
3331;SDS011;1678;50.94845400;5.30809100;2022-08-16T03:00:50;6.00;;;5.70;;
3331;SDS011;1678;50.94845400;5.30809100;2022-08-16T03:03:22;6.50;;;6.20;;
3331;SDS011;1678;50.94845400;5.30809100;2022-08-16T03:05:51;8.37;;;7.67;;
3331;SDS011;1678;50.94845400;5.30809100;2022-08-16T03:08:20;7.50;;;6.87;;
3331;SDS011;1678;50.94845400;5.30809100;2022-08-16T03:11:08;6.23;;;5.87;;
3331;SDS011;1678;50.94845400;5.30809100;2022-08-16T03:13:45;8.30;;;7.63;;
3331;SDS011;1678;50.94845400;5.30809100;2022-08-16T03:16:16;12.43;;;7.00;;
3331;SDS011;1678;50.94845400;5.30809100;2022-08-16T03:19:06;7.20;;;6.70;;
3331;SDS011;1678;50.94845400;5.30809100;2022-08-16T03:21:34;7.73;;;7.07;;
3331;SDS011;1678;50.94845400;5.30809100;2022-08-16T03:24:04;7.27;;;6.77;;
3331;SDS011;1678;50.94845400;5.30809100;2022-08-16T03:26:53;6.17;;;5.60;;
3331;SDS011;1678;50.94845400;5.30809100;2022-08-16T03:29:25;7.50;;;6.90;;
3331;SDS011;1678;50.94845400;5.30809100;2022-08-16T03:31:55;6.97;;;6.57;;
3331;SDS011;1678;50.94845400;5.30809100;2022-08-16T03:34:25;13.93;;;6.97;;
3331;SDS011;1678;50.94845400;5.30809100;2022-08-16T03:36:53;6.40;;;5.77;;
3331;SDS011;1678;50.94845400;5.30809100;2022-08-16T03:39:21;7.80;;;7.30;;
3331;SDS011;1678;50.94845400;5.30809100;2022-08-16T03:41:50;7.10;;;6.70;;
3331;SDS011;1678;50.94845400;5.30809100;2022-08-16T03:44:27;7.60;;;7.20;;
3331;SDS011;1678;50.94845400;5.30809100;2022-08-16T03:47:10;7.80;;;7.23;;
3331;SDS011;1678;50.94845400;5.30809100;2022-08-16T03:49:44;8.17;;;7.23;;
3331;SDS011;1678;50.94845400;5.30809100;2022-08-16T03:52:17;7.27;;;6.77;;
3331;SDS011;1678;50.94845400;5.30809100;2022-08-16T03:54:49;7.57;;;7.00;;
3331;SDS011;1678;50.94845400;5.30809100;2022-08-16T03:57:24;8.30;;;7.70;;
3331;SDS011;1678;50.94845400;5.30809100;2022-08-16T04:00:03;7.90;;;7.20;;
3331;SDS011;1678;50.94845400;5.30809100;2022-08-16T04:02:59;8.00;;;7.50;;
3331;SDS011;1678;50.94845400;5.30809100;2022-08-16T04:05:35;7.27;;;6.60;;
3331;SDS011;1678;50.94845400;5.30809100;2022-08-16T04:08:04;8.17;;;7.47;;
3331;SDS011;1678;50.94845400;5.30809100;2022-08-16T04:10:50;7.87;;;7.17;;
3331;SDS011;1678;50.94845400;5.30809100;2022-08-16T04:13:20;7.13;;;6.63;;
3331;SDS011;1678;50.94845400;5.30809100;2022-08-16T04:16:09;7.83;;;7.33;;
3331;SDS011;1678;50.94845400;5.30809100;2022-08-16T04:18:53;7.93;;;6.97;;
3331;SDS011;1678;50.94845400;5.30809100;2022-08-16T04:21:29;8.37;;;7.57;;
3331;SDS011;1678;50.94845400;5.30809100;2022-08-16T04:23:58;7.83;;;7.33;;
3331;SDS011;1678;50.94845400;5.30809100;2022-08-16T04:26:28;6.93;;;6.37;;
3331;SDS011;1678;50.94845400;5.30809100;2022-08-16T04:28:57;9.77;;;8.83;;
3331;SDS011;1678;50.94845400;5.30809100;2022-08-16T04:31:47;9.20;;;8.07;;
3331;SDS011;1678;50.94845400;5.30809100;2022-08-16T04:34:23;9.10;;;8.27;;
3331;SDS011;1678;50.94845400;5.30809100;2022-08-16T04:36:52;14.00;;;7.70;;
3331;SDS011;1678;50.94845400;5.30809100;2022-08-16T04:39:22;9.03;;;8.43;;
3331;SDS011;1678;50.94845400;5.30809100;2022-08-16T04:42:10;7.33;;;6.63;;
3331;SDS011;1678;50.94845400;5.30809100;2022-08-16T04:44:39;8.17;;;7.57;;
3331;SDS011;1678;50.94845400;5.30809100;2022-08-16T04:47:21;7.80;;;7.20;;
3331;SDS011;1678;50.94845400;5.30809100;2022-08-16T04:49:56;7.73;;;7.10;;
3331;SDS011;1678;50.94845400;5.30809100;2022-08-16T04:52:25;12.50;;;7.47;;
3331;SDS011;1678;50.94845400;5.30809100;2022-08-16T04:55:10;10.13;;;9.17;;
3331;SDS011;1678;50.94845400;5.30809100;2022-08-16T04:57:40;7.73;;;7.10;;
3331;SDS011;1678;50.94845400;5.30809100;2022-08-16T05:00:10;9.30;;;8.60;;
3331;SDS011;1678;50.94845400;5.30809100;2022-08-16T05:03:00;8.03;;;7.40;;
3331;SDS011;1678;50.94845400;5.30809100;2022-08-16T05:05:34;9.40;;;8.67;;
3331;SDS011;1678;50.94845400;5.30809100;2022-08-16T05:08:21;8.80;;;7.97;;
3331;SDS011;1678;50.94845400;5.30809100;2022-08-16T05:10:55;9.33;;;8.50;;
3331;SDS011;1678;50.94845400;5.30809100;2022-08-16T05:13:28;9.30;;;8.50;;
3331;SDS011;1678;50.94845400;5.30809100;2022-08-16T05:16:07;9.53;;;8.63;;
3331;SDS011;1678;50.94845400;5.30809100;2022-08-16T05:18:46;9.63;;;8.93;;
3331;SDS011;1678;50.94845400;5.30809100;2022-08-16T05:21:17;8.53;;;7.20;;
3331;SDS011;1678;50.94845400;5.30809100;2022-08-16T05:23:47;9.20;;;8.30;;
3331;SDS011;1678;50.94845400;5.30809100;2022-08-16T05:26:23;9.93;;;9.27;;
3331;SDS011;1678;50.94845400;5.30809100;2022-08-16T05:28:53;9.97;;;9.00;;
3331;SDS011;1678;50.94845400;5.30809100;2022-08-16T05:31:22;8.80;;;8.03;;
3331;SDS011;1678;50.94845400;5.30809100;2022-08-16T05:33:57;9.50;;;8.67;;
3331;SDS011;1678;50.94845400;5.30809100;2022-08-16T05:36:28;9.40;;;8.60;;
3331;SDS011;1678;50.94845400;5.30809100;2022-08-16T05:39:03;10.47;;;9.57;;
3331;SDS011;1678;50.94845400;5.30809100;2022-08-16T05:41:33;8.83;;;8.13;;
3331;SDS011;1678;50.94845400;5.30809100;2022-08-16T05:44:12;9.37;;;8.57;;
3331;SDS011;1678;50.94845400;5.30809100;2022-08-16T05:46:50;10.33;;;8.97;;
3331;SDS011;1678;50.94845400;5.30809100;2022-08-16T05:49:21;7.20;;;6.70;;
3331;SDS011;1678;50.94845400;5.30809100;2022-08-16T05:51:50;7.87;;;7.40;;
3331;SDS011;1678;50.94845400;5.30809100;2022-08-16T05:54:22;8.20;;;7.60;;
3331;SDS011;1678;50.94845400;5.30809100;2022-08-16T05:56:51;9.13;;;7.57;;
3331;SDS011;1678;50.94845400;5.30809100;2022-08-16T05:59:21;10.00;;;8.13;;
3331;SDS011;1678;50.94845400;5.30809100;2022-08-16T06:01:52;7.43;;;6.90;;
3331;SDS011;1678;50.94845400;5.30809100;2022-08-16T06:04:22;7.43;;;6.80;;
3331;SDS011;1678;50.94845400;5.30809100;2022-08-16T06:07:02;7.80;;;7.30;;
3331;SDS011;1678;50.94845400;5.30809100;2022-08-16T06:09:34;8.60;;;7.87;;
3331;SDS011;1678;50.94845400;5.30809100;2022-08-16T06:12:09;7.97;;;7.37;;
3331;SDS011;1678;50.94845400;5.30809100;2022-08-16T06:14:53;9.53;;;8.70;;
3331;SDS011;1678;50.94845400;5.30809100;2022-08-16T06:17:24;8.67;;;8.17;;
3331;SDS011;1678;50.94845400;5.30809100;2022-08-16T06:20:11;9.13;;;8.10;;
3331;SDS011;1678;50.94845400;5.30809100;2022-08-16T06:22:48;9.20;;;8.50;;
3331;SDS011;1678;50.94845400;5.30809100;2022-08-16T06:25:29;9.43;;;8.63;;
3331;SDS011;1678;50.94845400;5.30809100;2022-08-16T06:28:04;8.73;;;7.80;;
3331;SDS011;1678;50.94845400;5.30809100;2022-08-16T06:30:36;8.60;;;8.00;;
3331;SDS011;1678;50.94845400;5.30809100;2022-08-16T06:33:09;8.70;;;7.83;;
3331;SDS011;1678;50.94845400;5.30809100;2022-08-16T06:35:46;9.37;;;8.20;;
3331;SDS011;1678;50.94845400;5.30809100;2022-08-16T06:38:14;7.63;;;7.30;;
3331;SDS011;1678;50.94845400;5.30809100;2022-08-16T06:40:59;9.83;;;9.03;;
3331;SDS011;1678;50.94845400;5.30809100;2022-08-16T06:43:29;10.77;;;8.47;;
3331;SDS011;1678;50.94845400;5.30809100;2022-08-16T06:45:58;10.67;;;9.37;;
3331;SDS011;1678;50.94845400;5.30809100;2022-08-16T06:48:29;10.57;;;9.83;;
3331;SDS011;1678;50.94845400;5.30809100;2022-08-16T06:51:00;9.60;;;8.70;;
3331;SDS011;1678;50.94845400;5.30809100;2022-08-16T06:53:29;10.07;;;9.07;;
3331;SDS011;1678;50.94845400;5.30809100;2022-08-16T06:56:01;12.07;;;10.97;;
3331;SDS011;1678;50.94845400;5.30809100;2022-08-16T06:58:48;11.30;;;9.27;;
3331;SDS011;1678;50.94845400;5.30809100;2022-08-16T07:01:17;13.23;;;9.70;;
3331;SDS011;1678;50.94845400;5.30809100;2022-08-16T07:04:06;10.50;;;9.60;;
3331;SDS011;1678;50.94845400;5.30809100;2022-08-16T07:06:38;9.13;;;8.43;;
3331;SDS011;1678;50.94845400;5.30809100;2022-08-16T07:09:09;9.40;;;8.60;;
3331;SDS011;1678;50.94845400;5.30809100;2022-08-16T07:11:41;14.93;;;9.10;;
3331;SDS011;1678;50.94845400;5.30809100;2022-08-16T07:14:16;8.43;;;7.70;;
3331;SDS011;1678;50.94845400;5.30809100;2022-08-16T07:16:52;9.03;;;8.20;;
3331;SDS011;1678;50.94845400;5.30809100;2022-08-16T07:19:23;10.70;;;9.70;;
3331;SDS011;1678;50.94845400;5.30809100;2022-08-16T07:22:14;14.70;;;8.10;;
3331;SDS011;1678;50.94845400;5.30809100;2022-08-16T07:25:03;13.27;;;9.13;;
3331;SDS011;1678;50.94845400;5.30809100;2022-08-16T07:27:33;8.60;;;8.00;;
3331;SDS011;1678;50.94845400;5.30809100;2022-08-16T07:30:03;8.43;;;7.70;;
3331;SDS011;1678;50.94845400;5.30809100;2022-08-16T07:32:53;10.00;;;9.13;;
3331;SDS011;1678;50.94845400;5.30809100;2022-08-16T07:35:21;9.33;;;8.50;;
3331;SDS011;1678;50.94845400;5.30809100;2022-08-16T07:37:51;7.37;;;6.87;;
3331;SDS011;1678;50.94845400;5.30809100;2022-08-16T07:40:19;9.50;;;8.20;;
3331;SDS011;1678;50.94845400;5.30809100;2022-08-16T07:43:08;7.57;;;6.90;;
3331;SDS011;1678;50.94845400;5.30809100;2022-08-16T07:45:36;9.13;;;8.23;;
3331;SDS011;1678;50.94845400;5.30809100;2022-08-16T07:48:08;6.37;;;6.03;;
3331;SDS011;1678;50.94845400;5.30809100;2022-08-16T07:50:38;7.97;;;7.37;;
3331;SDS011;1678;50.94845400;5.30809100;2022-08-16T07:53:26;6.47;;;6.07;;
3331;SDS011;1678;50.94845400;5.30809100;2022-08-16T07:55:55;8.47;;;7.87;;
3331;SDS011;1678;50.94845400;5.30809100;2022-08-16T07:58:25;7.37;;;6.80;;
3331;SDS011;1678;50.94845400;5.30809100;2022-08-16T08:01:01;7.27;;;6.57;;
3331;SDS011;1678;50.94845400;5.30809100;2022-08-16T08:03:36;6.73;;;6.40;;
3331;SDS011;1678;50.94845400;5.30809100;2022-08-16T08:06:13;7.90;;;7.50;;
3331;SDS011;1678;50.94845400;5.30809100;2022-08-16T08:08:42;7.67;;;7.03;;
3331;SDS011;1678;50.94845400;5.30809100;2022-08-16T08:11:17;8.47;;;6.50;;
3331;SDS011;1678;50.94845400;5.30809100;2022-08-16T08:13:49;7.30;;;6.60;;
3331;SDS011;1678;50.94845400;5.30809100;2022-08-16T08:16:19;9.83;;;7.23;;
3331;SDS011;1678;50.94845400;5.30809100;2022-08-16T08:18:56;6.93;;;6.60;;
3331;SDS011;1678;50.94845400;5.30809100;2022-08-16T08:21:27;6.73;;;6.23;;
3331;SDS011;1678;50.94845400;5.30809100;2022-08-16T08:24:18;8.93;;;7.73;;
3331;SDS011;1678;50.94845400;5.30809100;2022-08-16T08:26:46;7.80;;;7.07;;
3331;SDS011;1678;50.94845400;5.30809100;2022-08-16T08:29:16;6.87;;;6.40;;
3331;SDS011;1678;50.94845400;5.30809100;2022-08-16T08:32:02;11.80;;;6.63;;
3331;SDS011;1678;50.94845400;5.30809100;2022-08-16T08:34:51;6.50;;;6.20;;
3331;SDS011;1678;50.94845400;5.30809100;2022-08-16T08:37:19;6.70;;;6.20;;
3331;SDS011;1678;50.94845400;5.30809100;2022-08-16T08:39:50;6.60;;;6.00;;
3331;SDS011;1678;50.94845400;5.30809100;2022-08-16T08:42:20;6.47;;;5.90;;
3331;SDS011;1678;50.94845400;5.30809100;2022-08-16T08:44:53;5.10;;;4.80;;
3331;SDS011;1678;50.94845400;5.30809100;2022-08-16T08:47:21;7.37;;;6.77;;
3331;SDS011;1678;50.94845400;5.30809100;2022-08-16T08:49:49;7.03;;;6.50;;
3331;SDS011;1678;50.94845400;5.30809100;2022-08-16T08:52:23;6.40;;;5.93;;
3331;SDS011;1678;50.94845400;5.30809100;2022-08-16T08:55:02;10.43;;;5.90;;
3331;SDS011;1678;50.94845400;5.30809100;2022-08-16T08:57:36;8.73;;;6.50;;
3331;SDS011;1678;50.94845400;5.30809100;2022-08-16T09:00:06;5.80;;;5.50;;
3331;SDS011;1678;50.94845400;5.30809100;2022-08-16T09:02:39;6.40;;;6.10;;
3331;SDS011;1678;50.94845400;5.30809100;2022-08-16T09:05:11;8.50;;;7.90;;
3331;SDS011;1678;50.94845400;5.30809100;2022-08-16T09:07:41;8.70;;;6.50;;
3331;SDS011;1678;50.94845400;5.30809100;2022-08-16T09:10:29;7.73;;;7.13;;
3331;SDS011;1678;50.94845400;5.30809100;2022-08-16T09:12:59;6.57;;;6.27;;
3331;SDS011;1678;50.94845400;5.30809100;2022-08-16T09:15:28;6.63;;;6.07;;
3331;SDS011;1678;50.94845400;5.30809100;2022-08-16T09:17:59;6.80;;;6.30;;
3331;SDS011;1678;50.94845400;5.30809100;2022-08-16T09:20:48;7.10;;;6.60;;
3331;SDS011;1678;50.94845400;5.30809100;2022-08-16T09:23:26;6.10;;;5.80;;
3331;SDS011;1678;50.94845400;5.30809100;2022-08-16T09:25:56;7.50;;;6.80;;
3331;SDS011;1678;50.94845400;5.30809100;2022-08-16T09:28:24;6.60;;;6.20;;
3331;SDS011;1678;50.94845400;5.30809100;2022-08-16T09:31:12;8.23;;;5.90;;
3331;SDS011;1678;50.94845400;5.30809100;2022-08-16T09:33:41;5.60;;;5.40;;
3331;SDS011;1678;50.94845400;5.30809100;2022-08-16T09:36:17;6.03;;;5.80;;
3331;SDS011;1678;50.94845400;5.30809100;2022-08-16T09:38:58;11.33;;;6.23;;
3331;SDS011;1678;50.94845400;5.30809100;2022-08-16T09:41:30;8.10;;;5.80;;
3331;SDS011;1678;50.94845400;5.30809100;2022-08-16T09:43:59;8.73;;;6.80;;
3331;SDS011;1678;50.94845400;5.30809100;2022-08-16T09:46:49;6.70;;;6.30;;
3331;SDS011;1678;50.94845400;5.30809100;2022-08-16T09:49:23;6.33;;;5.97;;
3331;SDS011;1678;50.94845400;5.30809100;2022-08-16T09:52:02;6.20;;;5.90;;
3331;SDS011;1678;50.94845400;5.30809100;2022-08-16T09:54:31;5.53;;;5.13;;
3331;SDS011;1678;50.94845400;5.30809100;2022-08-16T09:57:00;5.23;;;5.03;;
3331;SDS011;1678;50.94845400;5.30809100;2022-08-16T09:59:29;5.43;;;5.10;;
3331;SDS011;1678;50.94845400;5.30809100;2022-08-16T10:02:04;5.67;;;5.40;;
3331;SDS011;1678;50.94845400;5.30809100;2022-08-16T10:04:53;8.60;;;5.60;;
3331;SDS011;1678;50.94845400;5.30809100;2022-08-16T10:07:22;6.20;;;5.70;;
3331;SDS011;1678;50.94845400;5.30809100;2022-08-16T10:09:51;5.83;;;5.40;;
3331;SDS011;1678;50.94845400;5.30809100;2022-08-16T10:12:23;5.10;;;4.70;;
3331;SDS011;1678;50.94845400;5.30809100;2022-08-16T10:15:11;5.53;;;5.00;;
3331;SDS011;1678;50.94845400;5.30809100;2022-08-16T10:17:43;6.83;;;4.77;;
3331;SDS011;1678;50.94845400;5.30809100;2022-08-16T10:20:27;5.10;;;4.90;;
3331;SDS011;1678;50.94845400;5.30809100;2022-08-16T10:23:00;5.93;;;5.63;;
3331;SDS011;1678;50.94845400;5.30809100;2022-08-16T10:25:33;4.63;;;4.43;;
3331;SDS011;1678;50.94845400;5.30809100;2022-08-16T10:28:25;5.10;;;4.70;;
3331;SDS011;1678;50.94845400;5.30809100;2022-08-16T10:30:57;6.73;;;6.23;;
3331;SDS011;1678;50.94845400;5.30809100;2022-08-16T10:33:29;5.93;;;5.60;;
3331;SDS011;1678;50.94845400;5.30809100;2022-08-16T10:35:59;4.90;;;4.57;;
3331;SDS011;1678;50.94845400;5.30809100;2022-08-16T10:38:29;5.57;;;5.23;;
3331;SDS011;1678;50.94845400;5.30809100;2022-08-16T10:40:58;6.90;;;6.10;;
3331;SDS011;1678;50.94845400;5.30809100;2022-08-16T10:43:28;5.33;;;4.83;;
3331;SDS011;1678;50.94845400;5.30809100;2022-08-16T10:45:57;10.30;;;6.50;;
3331;SDS011;1678;50.94845400;5.30809100;2022-08-16T10:48:26;4.93;;;4.70;;
3331;SDS011;1678;50.94845400;5.30809100;2022-08-16T10:50:59;7.97;;;6.00;;
3331;SDS011;1678;50.94845400;5.30809100;2022-08-16T10:53:30;5.20;;;4.80;;
3331;SDS011;1678;50.94845400;5.30809100;2022-08-16T10:55:59;5.40;;;5.10;;
3331;SDS011;1678;50.94845400;5.30809100;2022-08-16T10:58:33;4.50;;;4.30;;
3331;SDS011;1678;50.94845400;5.30809100;2022-08-16T11:01:01;12.90;;;6.40;;
3331;SDS011;1678;50.94845400;5.30809100;2022-08-16T11:03:50;4.87;;;4.57;;
3331;SDS011;1678;50.94845400;5.30809100;2022-08-16T11:06:23;5.73;;;5.23;;
3331;SDS011;1678;50.94845400;5.30809100;2022-08-16T11:08:54;8.83;;;5.37;;
3331;SDS011;1678;50.94845400;5.30809100;2022-08-16T11:11:43;5.13;;;4.83;;
3331;SDS011;1678;50.94845400;5.30809100;2022-08-16T11:14:33;7.83;;;4.30;;
3331;SDS011;1678;50.94845400;5.30809100;2022-08-16T11:17:03;5.93;;;5.40;;
3331;SDS011;1678;50.94845400;5.30809100;2022-08-16T11:19:36;5.10;;;4.90;;
3331;SDS011;1678;50.94845400;5.30809100;2022-08-16T11:22:26;4.80;;;4.40;;
3331;SDS011;1678;50.94845400;5.30809100;2022-08-16T11:25:13;5.37;;;5.17;;
3331;SDS011;1678;50.94845400;5.30809100;2022-08-16T11:28:04;6.93;;;5.50;;
3331;SDS011;1678;50.94845400;5.30809100;2022-08-16T11:30:35;5.60;;;5.13;;
3331;SDS011;1678;50.94845400;5.30809100;2022-08-16T11:33:04;7.33;;;4.73;;
3331;SDS011;1678;50.94845400;5.30809100;2022-08-16T11:35:33;5.27;;;4.97;;
3331;SDS011;1678;50.94845400;5.30809100;2022-08-16T11:38:22;4.63;;;4.37;;
3331;SDS011;1678;50.94845400;5.30809100;2022-08-16T11:41:10;4.33;;;4.23;;
3331;SDS011;1678;50.94845400;5.30809100;2022-08-16T11:43:39;4.80;;;4.50;;
3331;SDS011;1678;50.94845400;5.30809100;2022-08-16T11:46:10;4.60;;;4.40;;
3331;SDS011;1678;50.94845400;5.30809100;2022-08-16T11:48:59;4.03;;;3.83;;
3331;SDS011;1678;50.94845400;5.30809100;2022-08-16T11:51:27;5.07;;;4.67;;
3331;SDS011;1678;50.94845400;5.30809100;2022-08-16T11:53:55;4.00;;;3.90;;
3331;SDS011;1678;50.94845400;5.30809100;2022-08-16T11:56:23;20.23;;;4.73;;
3331;SDS011;1678;50.94845400;5.30809100;2022-08-16T11:59:11;5.80;;;3.57;;
3331;SDS011;1678;50.94845400;5.30809100;2022-08-16T12:01:42;6.13;;;5.83;;
3331;SDS011;1678;50.94845400;5.30809100;2022-08-16T12:04:25;5.70;;;4.43;;
3331;SDS011;1678;50.94845400;5.30809100;2022-08-16T12:06:55;4.60;;;4.20;;
3331;SDS011;1678;50.94845400;5.30809100;2022-08-16T12:09:24;4.53;;;4.13;;
3331;SDS011;1678;50.94845400;5.30809100;2022-08-16T12:11:55;5.63;;;5.00;;
3331;SDS011;1678;50.94845400;5.30809100;2022-08-16T12:14:23;4.77;;;4.53;;
3331;SDS011;1678;50.94845400;5.30809100;2022-08-16T12:16:56;3.80;;;3.70;;
3331;SDS011;1678;50.94845400;5.30809100;2022-08-16T12:19:28;5.43;;;5.10;;
3331;SDS011;1678;50.94845400;5.30809100;2022-08-16T12:22:01;5.80;;;5.50;;
3331;SDS011;1678;50.94845400;5.30809100;2022-08-16T12:24:44;3.67;;;3.60;;
3331;SDS011;1678;50.94845400;5.30809100;2022-08-16T12:27:17;4.23;;;4.03;;
3331;SDS011;1678;50.94845400;5.30809100;2022-08-16T12:29:48;5.33;;;4.03;;
3331;SDS011;1678;50.94845400;5.30809100;2022-08-16T12:32:19;4.20;;;3.93;;
3331;SDS011;1678;50.94845400;5.30809100;2022-08-16T12:35:04;6.27;;;4.53;;
3331;SDS011;1678;50.94845400;5.30809100;2022-08-16T12:37:33;5.30;;;5.10;;
3331;SDS011;1678;50.94845400;5.30809100;2022-08-16T12:40:02;4.23;;;3.93;;
3331;SDS011;1678;50.94845400;5.30809100;2022-08-16T12:42:46;4.50;;;4.20;;
3331;SDS011;1678;50.94845400;5.30809100;2022-08-16T12:45:19;4.70;;;4.30;;
3331;SDS011;1678;50.94845400;5.30809100;2022-08-16T12:47:51;4.00;;;3.80;;
3331;SDS011;1678;50.94845400;5.30809100;2022-08-16T12:50:56;4.30;;;3.60;;
3331;SDS011;1678;50.94845400;5.30809100;2022-08-16T12:53:26;3.97;;;3.80;;
3331;SDS011;1678;50.94845400;5.30809100;2022-08-16T12:55:57;3.77;;;3.67;;
3331;SDS011;1678;50.94845400;5.30809100;2022-08-16T12:58:25;4.13;;;3.47;;
3331;SDS011;1678;50.94845400;5.30809100;2022-08-16T13:01:13;3.53;;;3.43;;
3331;SDS011;1678;50.94845400;5.30809100;2022-08-16T13:03:44;3.40;;;3.20;;
3331;SDS011;1678;50.94845400;5.30809100;2022-08-16T13:06:12;4.40;;;4.30;;
3331;SDS011;1678;50.94845400;5.30809100;2022-08-16T13:08:45;4.20;;;3.80;;
3331;SDS011;1678;50.94845400;5.30809100;2022-08-16T13:11:15;3.60;;;3.40;;
3331;SDS011;1678;50.94845400;5.30809100;2022-08-16T13:13:49;4.50;;;4.10;;
3331;SDS011;1678;50.94845400;5.30809100;2022-08-16T13:16:20;3.43;;;3.33;;
3331;SDS011;1678;50.94845400;5.30809100;2022-08-16T13:18:53;3.50;;;3.40;;
3331;SDS011;1678;50.94845400;5.30809100;2022-08-16T13:21:21;4.10;;;3.90;;
3331;SDS011;1678;50.94845400;5.30809100;2022-08-16T13:23:52;3.03;;;2.93;;
3331;SDS011;1678;50.94845400;5.30809100;2022-08-16T13:26:21;4.00;;;3.77;;
3331;SDS011;1678;50.94845400;5.30809100;2022-08-16T13:28:51;2.87;;;2.67;;
3331;SDS011;1678;50.94845400;5.30809100;2022-08-16T13:31:20;3.20;;;3.00;;
3331;SDS011;1678;50.94845400;5.30809100;2022-08-16T13:33:49;2.77;;;2.67;;
3331;SDS011;1678;50.94845400;5.30809100;2022-08-16T13:36:28;3.10;;;2.83;;
3331;SDS011;1678;50.94845400;5.30809100;2022-08-16T13:39:14;4.00;;;3.70;;
3331;SDS011;1678;50.94845400;5.30809100;2022-08-16T13:41:43;4.00;;;3.90;;
3331;SDS011;1678;50.94845400;5.30809100;2022-08-16T13:44:19;3.50;;;3.40;;
3331;SDS011;1678;50.94845400;5.30809100;2022-08-16T13:47:07;3.50;;;3.50;;
3331;SDS011;1678;50.94845400;5.30809100;2022-08-16T13:49:35;3.57;;;3.37;;
3331;SDS011;1678;50.94845400;5.30809100;2022-08-16T13:52:05;2.97;;;2.87;;